Terminal Aerodrome Forecast
Issued by NWS Central Illinois

Home | Current Version | Previous Version | Text Only | Print | Product List | Glossary On
Versions: 1 2 3 4 5 6 7 8 9 10 11 12 13 14 15 16 17 18 19 20 21 22 23 24 25 26 27 28 29 30 31 32 33 34 35 36 37 38 39
000
FTUS43 KILX 260000 RRA
TAFPIA
TAF
KPIA 260012Z 2600/2624 VRB04KT P6SM SKC
     FM260300 14004KT P6SM SCT250
     FM261000 14007KT P6SM SCT070 BKN150
     FM261700 14008KT P6SM VCSH BKN070
     FM262100 10006KT P6SM VCSH BKN020 OVC050=

USA.gov is the U.S. government's official web portal to all federal, state and local government web resources and services.